sensor_id;sensor_type;location;lat;lon;timestamp;P1;durP1;ratioP1;P2;durP2;ratioP2
38994;SDS011;24769;18.712;99.000;2023-02-15T00:01:46;156.50;;;153.00;;
38994;SDS011;24769;18.712;99.000;2023-02-15T00:04:14;158.50;;;153.00;;
38994;SDS011;24769;18.712;99.000;2023-02-15T00:06:45;150.50;;;145.50;;
38994;SDS011;24769;18.712;99.000;2023-02-15T00:09:12;145.00;;;144.75;;
38994;SDS011;24769;18.712;99.000;2023-02-15T00:11:39;154.50;;;153.75;;
38994;SDS011;24769;18.712;99.000;2023-02-15T00:14:20;161.50;;;158.00;;
38994;SDS011;24769;18.712;99.000;2023-02-15T00:16:49;158.50;;;156.00;;
38994;SDS011;24769;18.712;99.000;2023-02-15T00:19:18;157.50;;;153.75;;
38994;SDS011;24769;18.712;99.000;2023-02-15T00:21:46;158.50;;;157.50;;
38994;SDS011;24769;18.712;99.000;2023-02-15T00:24:14;157.00;;;155.50;;
38994;SDS011;24769;18.712;99.000;2023-02-15T00:26:42;166.50;;;162.75;;
38994;SDS011;24769;18.712;99.000;2023-02-15T00:29:10;156.75;;;152.00;;
38994;SDS011;24769;18.712;99.000;2023-02-15T00:31:37;155.75;;;155.25;;
38994;SDS011;24769;18.712;99.000;2023-02-15T00:34:10;159.25;;;156.25;;
38994;SDS011;24769;18.712;99.000;2023-02-15T00:36:45;175.50;;;171.50;;
38994;SDS011;24769;18.712;99.000;2023-02-15T00:39:12;171.75;;;167.75;;
38994;SDS011;24769;18.712;99.000;2023-02-15T00:41:39;180.00;;;172.25;;
38994;SDS011;24769;18.712;99.000;2023-02-15T00:44:06;179.50;;;172.25;;
38994;SDS011;24769;18.712;99.000;2023-02-15T00:46:34;162.75;;;154.25;;
38994;SDS011;24769;18.712;99.000;2023-02-15T00:49:02;172.50;;;167.75;;
38994;SDS011;24769;18.712;99.000;2023-02-15T00:51:30;174.00;;;170.25;;
38994;SDS011;24769;18.712;99.000;2023-02-15T00:53:57;187.00;;;181.00;;
38994;SDS011;24769;18.712;99.000;2023-02-15T00:56:24;175.50;;;169.00;;
38994;SDS011;24769;18.712;99.000;2023-02-15T00:58:50;179.25;;;175.00;;
38994;SDS011;24769;18.712;99.000;2023-02-15T01:01:18;187.75;;;184.00;;
38994;SDS011;24769;18.712;99.000;2023-02-15T01:03:46;189.50;;;182.25;;
38994;SDS011;24769;18.712;99.000;2023-02-15T01:06:13;193.00;;;186.25;;
38994;SDS011;24769;18.712;99.000;2023-02-15T01:08:44;186.50;;;183.25;;
38994;SDS011;24769;18.712;99.000;2023-02-15T01:11:16;172.25;;;167.00;;
38994;SDS011;24769;18.712;99.000;2023-02-15T01:13:54;173.50;;;168.00;;
38994;SDS011;24769;18.712;99.000;2023-02-15T01:16:23;167.75;;;166.25;;
38994;SDS011;24769;18.712;99.000;2023-02-15T01:18:51;156.50;;;156.00;;
38994;SDS011;24769;18.712;99.000;2023-02-15T01:21:20;166.75;;;166.50;;
38994;SDS011;24769;18.712;99.000;2023-02-15T01:23:48;161.25;;;159.00;;
38994;SDS011;24769;18.712;99.000;2023-02-15T01:26:15;151.25;;;148.00;;
38994;SDS011;24769;18.712;99.000;2023-02-15T01:28:42;172.75;;;170.50;;
38994;SDS011;24769;18.712;99.000;2023-02-15T01:31:10;162.75;;;158.75;;
38994;SDS011;24769;18.712;99.000;2023-02-15T01:33:39;175.75;;;169.50;;
38994;SDS011;24769;18.712;99.000;2023-02-15T01:36:06;170.00;;;166.67;;
38994;SDS011;24769;18.712;99.000;2023-02-15T01:38:32;164.67;;;164.33;;
38994;SDS011;24769;18.712;99.000;2023-02-15T01:41:00;176.25;;;172.00;;
38994;SDS011;24769;18.712;99.000;2023-02-15T01:43:58;169.33;;;165.67;;
38994;SDS011;24769;18.712;99.000;2023-02-15T01:46:48;171.00;;;166.33;;
38994;SDS011;24769;18.712;99.000;2023-02-15T01:49:17;160.25;;;158.50;;
38994;SDS011;24769;18.712;99.000;2023-02-15T01:51:49;175.00;;;171.33;;
38994;SDS011;24769;18.712;99.000;2023-02-15T01:56:49;178.33;;;172.33;;
38994;SDS011;24769;18.712;99.000;2023-02-15T01:59:19;182.00;;;172.33;;
38994;SDS011;24769;18.712;99.000;2023-02-15T02:01:48;177.25;;;171.75;;
38994;SDS011;24769;18.712;99.000;2023-02-15T02:06:50;183.67;;;179.33;;
38994;SDS011;24769;18.712;99.000;2023-02-15T02:09:17;181.67;;;178.00;;
38994;SDS011;24769;18.712;99.000;2023-02-15T02:11:44;195.33;;;188.33;;
38994;SDS011;24769;18.712;99.000;2023-02-15T02:14:13;175.00;;;170.75;;
38994;SDS011;24769;18.712;99.000;2023-02-15T02:16:50;177.25;;;172.75;;
38994;SDS011;24769;18.712;99.000;2023-02-15T02:23:07;166.25;;;164.25;;
38994;SDS011;24769;18.712;99.000;2023-02-15T02:36:21;165.75;;;164.00;;
38994;SDS011;24769;18.712;99.000;2023-02-15T02:46:59;165.00;;;161.75;;
38994;SDS011;24769;18.712;99.000;2023-02-15T02:49:35;170.25;;;164.25;;
38994;SDS011;24769;18.712;99.000;2023-02-15T02:52:04;169.75;;;167.25;;
38994;SDS011;24769;18.712;99.000;2023-02-15T02:54:50;166.25;;;159.25;;
38994;SDS011;24769;18.712;99.000;2023-02-15T02:57:16;168.25;;;166.75;;
38994;SDS011;24769;18.712;99.000;2023-02-15T02:59:45;165.25;;;160.25;;
38994;SDS011;24769;18.712;99.000;2023-02-15T03:02:16;159.25;;;157.00;;
38994;SDS011;24769;18.712;99.000;2023-02-15T03:04:49;175.50;;;173.50;;
38994;SDS011;24769;18.712;99.000;2023-02-15T03:07:24;165.25;;;160.25;;
38994;SDS011;24769;18.712;99.000;2023-02-15T03:09:54;162.75;;;157.50;;
38994;SDS011;24769;18.712;99.000;2023-02-15T03:12:24;164.00;;;161.00;;
38994;SDS011;24769;18.712;99.000;2023-02-15T03:15:06;165.50;;;164.50;;
38994;SDS011;24769;18.712;99.000;2023-02-15T03:17:40;155.25;;;152.25;;
38994;SDS011;24769;18.712;99.000;2023-02-15T03:20:18;170.00;;;165.50;;
38994;SDS011;24769;18.712;99.000;2023-02-15T03:23:08;163.50;;;161.50;;
38994;SDS011;24769;18.712;99.000;2023-02-15T03:25:41;160.50;;;156.00;;
38994;SDS011;24769;18.712;99.000;2023-02-15T03:28:11;173.50;;;165.75;;
38994;SDS011;24769;18.712;99.000;2023-02-15T03:30:42;160.80;;;154.20;;
38994;SDS011;24769;18.712;99.000;2023-02-15T03:33:13;165.75;;;163.50;;
38994;SDS011;24769;18.712;99.000;2023-02-15T03:35:45;157.00;;;153.75;;
38994;SDS011;24769;18.712;99.000;2023-02-15T03:38:26;168.00;;;165.25;;
38994;SDS011;24769;18.712;99.000;2023-02-15T03:41:01;163.50;;;161.00;;
38994;SDS011;24769;18.712;99.000;2023-02-15T03:49:08;161.75;;;161.75;;
38994;SDS011;24769;18.712;99.000;2023-02-15T03:52:02;158.40;;;155.20;;
38994;SDS011;24769;18.712;99.000;2023-02-15T03:54:33;161.25;;;161.00;;
38994;SDS011;24769;18.712;99.000;2023-02-15T03:57:22;162.60;;;158.20;;
38994;SDS011;24769;18.712;99.000;2023-02-15T04:00:22;159.50;;;155.25;;
38994;SDS011;24769;18.712;99.000;2023-02-15T04:05:58;153.00;;;151.75;;
38994;SDS011;24769;18.712;99.000;2023-02-15T04:08:28;157.00;;;155.00;;
38994;SDS011;24769;18.712;99.000;2023-02-15T04:11:13;165.00;;;162.00;;
38994;SDS011;24769;18.712;99.000;2023-02-15T04:13:39;158.75;;;157.75;;
38994;SDS011;24769;18.712;99.000;2023-02-15T04:16:06;171.25;;;169.00;;
38994;SDS011;24769;18.712;99.000;2023-02-15T04:18:39;163.60;;;161.80;;
38994;SDS011;24769;18.712;99.000;2023-02-15T04:21:26;167.25;;;163.75;;
38994;SDS011;24769;18.712;99.000;2023-02-15T04:24:13;167.80;;;165.60;;
38994;SDS011;24769;18.712;99.000;2023-02-15T04:26:59;163.00;;;160.00;;
38994;SDS011;24769;18.712;99.000;2023-02-15T04:29:26;141.00;;;135.40;;
38994;SDS011;24769;18.712;99.000;2023-02-15T04:31:57;168.00;;;163.20;;
38994;SDS011;24769;18.712;99.000;2023-02-15T04:34:25;156.00;;;151.20;;
38994;SDS011;24769;18.712;99.000;2023-02-15T04:36:55;159.80;;;158.60;;
38994;SDS011;24769;18.712;99.000;2023-02-15T04:39:21;163.60;;;161.60;;
38994;SDS011;24769;18.712;99.000;2023-02-15T04:41:48;155.20;;;149.40;;
38994;SDS011;24769;18.712;99.000;2023-02-15T04:44:14;165.20;;;160.80;;
38994;SDS011;24769;18.712;99.000;2023-02-15T04:46:41;163.60;;;163.00;;
38994;SDS011;24769;18.712;99.000;2023-02-15T04:49:08;157.40;;;155.20;;
38994;SDS011;24769;18.712;99.000;2023-02-15T04:51:34;159.80;;;159.20;;
38994;SDS011;24769;18.712;99.000;2023-02-15T04:54:01;155.60;;;154.40;;
38994;SDS011;24769;18.712;99.000;2023-02-15T04:56:27;164.80;;;162.60;;
38994;SDS011;24769;18.712;99.000;2023-02-15T04:58:55;172.20;;;164.80;;
38994;SDS011;24769;18.712;99.000;2023-02-15T05:01:21;160.80;;;157.80;;
38994;SDS011;24769;18.712;99.000;2023-02-15T05:03:48;170.20;;;167.60;;
38994;SDS011;24769;18.712;99.000;2023-02-15T05:06:14;157.60;;;155.00;;
38994;SDS011;24769;18.712;99.000;2023-02-15T05:08:41;151.40;;;151.00;;
38994;SDS011;24769;18.712;99.000;2023-02-15T05:11:07;171.00;;;168.00;;
38994;SDS011;24769;18.712;99.000;2023-02-15T05:13:34;163.00;;;160.00;;
38994;SDS011;24769;18.712;99.000;2023-02-15T05:16:00;159.80;;;154.60;;
38994;SDS011;24769;18.712;99.000;2023-02-15T05:18:27;152.60;;;152.00;;
38994;SDS011;24769;18.712;99.000;2023-02-15T05:20:53;163.40;;;160.40;;
38994;SDS011;24769;18.712;99.000;2023-02-15T05:23:20;165.80;;;165.20;;
38994;SDS011;24769;18.712;99.000;2023-02-15T05:25:50;166.80;;;163.00;;
38994;SDS011;24769;18.712;99.000;2023-02-15T05:28:35;178.20;;;174.60;;
38994;SDS011;24769;18.712;99.000;2023-02-15T05:31:16;177.80;;;174.40;;
38994;SDS011;24769;18.712;99.000;2023-02-15T05:33:44;182.00;;;179.60;;
38994;SDS011;24769;18.712;99.000;2023-02-15T05:36:10;171.40;;;170.20;;
38994;SDS011;24769;18.712;99.000;2023-02-15T05:38:37;179.60;;;176.80;;
38994;SDS011;24769;18.712;99.000;2023-02-15T05:41:07;179.20;;;175.00;;
38994;SDS011;24769;18.712;99.000;2023-02-15T05:43:35;184.20;;;181.20;;
38994;SDS011;24769;18.712;99.000;2023-02-15T05:46:02;186.75;;;183.25;;
38994;SDS011;24769;18.712;99.000;2023-02-15T05:48:29;188.50;;;184.00;;
38994;SDS011;24769;18.712;99.000;2023-02-15T05:50:57;197.25;;;193.25;;
38994;SDS011;24769;18.712;99.000;2023-02-15T05:53:24;190.00;;;187.25;;
38994;SDS011;24769;18.712;99.000;2023-02-15T05:55:51;190.00;;;185.00;;
38994;SDS011;24769;18.712;99.000;2023-02-15T05:58:19;210.25;;;208.75;;
38994;SDS011;24769;18.712;99.000;2023-02-15T06:00:46;189.00;;;187.50;;
38994;SDS011;24769;18.712;99.000;2023-02-15T06:03:12;196.50;;;190.75;;
38994;SDS011;24769;18.712;99.000;2023-02-15T06:05:39;192.75;;;191.25;;
38994;SDS011;24769;18.712;99.000;2023-02-15T06:08:05;200.50;;;196.25;;
38994;SDS011;24769;18.712;99.000;2023-02-15T06:10:32;192.25;;;189.00;;
38994;SDS011;24769;18.712;99.000;2023-02-15T06:12:58;192.00;;;190.25;;
38994;SDS011;24769;18.712;99.000;2023-02-15T06:15:25;205.75;;;203.75;;
38994;SDS011;24769;18.712;99.000;2023-02-15T06:17:52;199.75;;;198.25;;
38994;SDS011;24769;18.712;99.000;2023-02-15T06:20:18;196.25;;;195.50;;
38994;SDS011;24769;18.712;99.000;2023-02-15T06:22:45;193.75;;;189.00;;
38994;SDS011;24769;18.712;99.000;2023-02-15T06:25:12;200.75;;;199.25;;
38994;SDS011;24769;18.712;99.000;2023-02-15T06:27:40;195.75;;;194.00;;
38994;SDS011;24769;18.712;99.000;2023-02-15T06:30:08;210.00;;;205.25;;
38994;SDS011;24769;18.712;99.000;2023-02-15T06:32:35;211.75;;;205.00;;
38994;SDS011;24769;18.712;99.000;2023-02-15T06:35:02;197.50;;;195.25;;
38994;SDS011;24769;18.712;99.000;2023-02-15T06:37:29;199.50;;;196.50;;
38994;SDS011;24769;18.712;99.000;2023-02-15T06:39:55;197.25;;;191.50;;
38994;SDS011;24769;18.712;99.000;2023-02-15T06:42:22;203.25;;;202.50;;
38994;SDS011;24769;18.712;99.000;2023-02-15T06:44:49;203.00;;;199.00;;
38994;SDS011;24769;18.712;99.000;2023-02-15T06:47:16;198.75;;;197.75;;
38994;SDS011;24769;18.712;99.000;2023-02-15T06:49:42;202.25;;;199.50;;
38994;SDS011;24769;18.712;99.000;2023-02-15T06:52:09;185.50;;;182.25;;
38994;SDS011;24769;18.712;99.000;2023-02-15T06:54:35;197.00;;;194.75;;
38994;SDS011;24769;18.712;99.000;2023-02-15T06:57:02;191.00;;;191.00;;
38994;SDS011;24769;18.712;99.000;2023-02-15T06:59:29;182.40;;;179.60;;
38994;SDS011;24769;18.712;99.000;2023-02-15T07:01:55;189.75;;;189.50;;
38994;SDS011;24769;18.712;99.000;2023-02-15T07:04:22;200.60;;;196.40;;
38994;SDS011;24769;18.712;99.000;2023-02-15T07:06:48;200.25;;;199.75;;
38994;SDS011;24769;18.712;99.000;2023-02-15T07:09:15;189.80;;;187.80;;
38994;SDS011;24769;18.712;99.000;2023-02-15T07:11:42;191.60;;;186.60;;
38994;SDS011;24769;18.712;99.000;2023-02-15T07:14:26;183.20;;;182.00;;
38994;SDS011;24769;18.712;99.000;2023-02-15T07:16:53;187.60;;;183.60;;
38994;SDS011;24769;18.712;99.000;2023-02-15T07:19:19;191.60;;;188.80;;
38994;SDS011;24769;18.712;99.000;2023-02-15T07:21:46;193.80;;;191.20;;
38994;SDS011;24769;18.712;99.000;2023-02-15T07:24:13;196.40;;;190.60;;
38994;SDS011;24769;18.712;99.000;2023-02-15T07:26:40;187.60;;;184.60;;
38994;SDS011;24769;18.712;99.000;2023-02-15T07:29:06;192.20;;;189.80;;
38994;SDS011;24769;18.712;99.000;2023-02-15T07:31:33;183.40;;;181.20;;
38994;SDS011;24769;18.712;99.000;2023-02-15T07:34:00;187.80;;;182.20;;
38994;SDS011;24769;18.712;99.000;2023-02-15T07:36:26;178.40;;;176.40;;
38994;SDS011;24769;18.712;99.000;2023-02-15T07:38:53;187.40;;;183.60;;
38994;SDS011;24769;18.712;99.000;2023-02-15T07:41:19;185.40;;;181.60;;
38994;SDS011;24769;18.712;99.000;2023-02-15T07:43:46;184.20;;;182.80;;
38994;SDS011;24769;18.712;99.000;2023-02-15T07:46:13;177.80;;;177.20;;
38994;SDS011;24769;18.712;99.000;2023-02-15T07:48:42;173.60;;;171.80;;
38994;SDS011;24769;18.712;99.000;2023-02-15T07:51:09;175.40;;;173.20;;
38994;SDS011;24769;18.712;99.000;2023-02-15T07:53:37;164.00;;;161.60;;
38994;SDS011;24769;18.712;99.000;2023-02-15T07:56:05;182.20;;;177.40;;
38994;SDS011;24769;18.712;99.000;2023-02-15T07:58:35;181.00;;;177.80;;
38994;SDS011;24769;18.712;99.000;2023-02-15T08:01:20;178.60;;;175.80;;
38994;SDS011;24769;18.712;99.000;2023-02-15T08:03:47;177.60;;;175.00;;
38994;SDS011;24769;18.712;99.000;2023-02-15T08:06:14;191.40;;;188.60;;
38994;SDS011;24769;18.712;99.000;2023-02-15T08:08:41;180.00;;;179.20;;
38994;SDS011;24769;18.712;99.000;2023-02-15T08:13:56;192.40;;;187.00;;
38994;SDS011;24769;18.712;99.000;2023-02-15T08:16:49;179.60;;;176.00;;
38994;SDS011;24769;18.712;99.000;2023-02-15T08:19:25;189.20;;;183.20;;
38994;SDS011;24769;18.712;99.000;2023-02-15T08:21:53;188.80;;;185.60;;
38994;SDS011;24769;18.712;99.000;2023-02-15T08:24:23;192.40;;;190.60;;
38994;SDS011;24769;18.712;99.000;2023-02-15T08:26:51;197.75;;;194.50;;
38994;SDS011;24769;18.712;99.000;2023-02-15T08:29:22;182.00;;;181.00;;
38994;SDS011;24769;18.712;99.000;2023-02-15T08:31:52;189.20;;;185.40;;
38994;SDS011;24769;18.712;99.000;2023-02-15T08:34:23;179.40;;;178.40;;
38994;SDS011;24769;18.712;99.000;2023-02-15T08:36:50;194.40;;;184.80;;
38994;SDS011;24769;18.712;99.000;2023-02-15T08:39:17;175.60;;;174.00;;
38994;SDS011;24769;18.712;99.000;2023-02-15T08:41:44;180.80;;;178.80;;
38994;SDS011;24769;18.712;99.000;2023-02-15T08:44:12;183.00;;;180.80;;
38994;SDS011;24769;18.712;99.000;2023-02-15T08:46:41;187.20;;;186.40;;
38994;SDS011;24769;18.712;99.000;2023-02-15T08:49:09;185.80;;;183.80;;
38994;SDS011;24769;18.712;99.000;2023-02-15T08:51:39;192.40;;;188.60;;
38994;SDS011;24769;18.712;99.000;2023-02-15T08:54:07;188.60;;;187.00;;
38994;SDS011;24769;18.712;99.000;2023-02-15T08:56:36;196.25;;;192.25;;
38994;SDS011;24769;18.712;99.000;2023-02-15T08:59:05;183.40;;;181.40;;
38994;SDS011;24769;18.712;99.000;2023-02-15T09:01:33;190.60;;;187.20;;
38994;SDS011;24769;18.712;99.000;2023-02-15T09:04:01;199.20;;;195.80;;
38994;SDS011;24769;18.712;99.000;2023-02-15T09:06:35;196.50;;;190.25;;
38994;SDS011;24769;18.712;99.000;2023-02-15T09:09:03;199.75;;;197.00;;
38994;SDS011;24769;18.712;99.000;2023-02-15T09:11:32;188.60;;;186.80;;
38994;SDS011;24769;18.712;99.000;2023-02-15T09:14:05;187.00;;;184.00;;
38994;SDS011;24769;18.712;99.000;2023-02-15T09:16:35;178.00;;;175.60;;
38994;SDS011;24769;18.712;99.000;2023-02-15T09:19:03;190.40;;;186.40;;
38994;SDS011;24769;18.712;99.000;2023-02-15T09:21:30;201.50;;;191.00;;
38994;SDS011;24769;18.712;99.000;2023-02-15T09:23:58;185.00;;;181.60;;
38994;SDS011;24769;18.712;99.000;2023-02-15T09:26:27;193.80;;;191.00;;
38994;SDS011;24769;18.712;99.000;2023-02-15T09:28:56;196.00;;;191.25;;
38994;SDS011;24769;18.712;99.000;2023-02-15T09:31:25;189.80;;;188.00;;
38994;SDS011;24769;18.712;99.000;2023-02-15T09:33:54;191.75;;;188.50;;
38994;SDS011;24769;18.712;99.000;2023-02-15T09:38:59;177.00;;;172.50;;
38994;SDS011;24769;18.712;99.000;2023-02-15T10:01:03;198.80;;;196.00;;
38994;SDS011;24769;18.712;99.000;2023-02-15T10:03:52;190.50;;;189.00;;
38994;SDS011;24769;18.712;99.000;2023-02-15T10:06:42;188.60;;;187.40;;
38994;SDS011;24769;18.712;99.000;2023-02-15T10:14:52;191.75;;;189.50;;
38994;SDS011;24769;18.712;99.000;2023-02-15T10:28:19;171.80;;;171.20;;
38994;SDS011;24769;18.712;99.000;2023-02-15T10:30:53;179.00;;;175.50;;
38994;SDS011;24769;18.712;99.000;2023-02-15T10:33:39;191.20;;;188.80;;
38994;SDS011;24769;18.712;99.000;2023-02-15T10:55:40;176.40;;;171.00;;
38994;SDS011;24769;18.712;99.000;2023-02-15T11:00:23;163.60;;;156.80;;
38994;SDS011;24769;18.712;99.000;2023-02-15T11:03:04;162.40;;;160.60;;
38994;SDS011;24769;18.712;99.000;2023-02-15T11:08:29;153.20;;;153.20;;
38994;SDS011;24769;18.712;99.000;2023-02-15T11:11:37;141.40;;;141.40;;
38994;SDS011;24769;18.712;99.000;2023-02-15T11:14:50;150.60;;;147.80;;
38994;SDS011;24769;18.712;99.000;2023-02-15T11:17:10;141.80;;;141.80;;
38994;SDS011;24769;18.712;99.000;2023-02-15T11:22:40;137.40;;;135.60;;
38994;SDS011;24769;18.712;99.000;2023-02-15T11:25:14;135.20;;;132.80;;
38994;SDS011;24769;18.712;99.000;2023-02-15T11:27:45;121.40;;;119.80;;
38994;SDS011;24769;18.712;99.000;2023-02-15T11:30:17;129.60;;;127.80;;
38994;SDS011;24769;18.712;99.000;2023-02-15T11:32:49;119.40;;;118.40;;
38994;SDS011;24769;18.712;99.000;2023-02-15T11:40:28;111.60;;;111.60;;
38994;SDS011;24769;18.712;99.000;2023-02-15T11:43:37;115.80;;;115.80;;
38994;SDS011;24769;18.712;99.000;2023-02-15T11:46:22;119.80;;;119.20;;
38994;SDS011;24769;18.712;99.000;2023-02-15T11:48:49;106.60;;;105.40;;
38994;SDS011;24769;18.712;99.000;2023-02-15T11:51:17;109.00;;;106.80;;
38994;SDS011;24769;18.712;99.000;2023-02-15T11:53:46;101.60;;;101.60;;
38994;SDS011;24769;18.712;99.000;2023-02-15T11:56:21;113.60;;;113.00;;
38994;SDS011;24769;18.712;99.000;2023-02-15T11:58:56;107.20;;;107.20;;
38994;SDS011;24769;18.712;99.000;2023-02-15T12:01:32;115.00;;;109.40;;
38994;SDS011;24769;18.712;99.000;2023-02-15T12:06:43;111.20;;;109.80;;
38994;SDS011;24769;18.712;99.000;2023-02-15T12:09:30;106.00;;;105.60;;
38994;SDS011;24769;18.712;99.000;2023-02-15T12:14:59;115.80;;;115.80;;
38994;SDS011;24769;18.712;99.000;2023-02-15T12:17:49;109.60;;;108.20;;
38994;SDS011;24769;18.712;99.000;2023-02-15T12:22:51;111.20;;;110.40;;
38994;SDS011;24769;18.712;99.000;2023-02-15T12:25:35;112.00;;;111.40;;
38994;SDS011;24769;18.712;99.000;2023-02-15T12:28:03;107.00;;;106.20;;
38994;SDS011;24769;18.712;99.000;2023-02-15T12:30:41;107.00;;;105.00;;
38994;SDS011;24769;18.712;99.000;2023-02-15T12:33:42;97.20;;;93.20;;
38994;SDS011;24769;18.712;99.000;2023-02-15T12:36:10;97.60;;;97.60;;
38994;SDS011;24769;18.712;99.000;2023-02-15T12:39:16;106.00;;;105.40;;
38994;SDS011;24769;18.712;99.000;2023-02-15T12:44:25;94.20;;;94.20;;
38994;SDS011;24769;18.712;99.000;2023-02-15T12:47:00;99.60;;;98.00;;
38994;SDS011;24769;18.712;99.000;2023-02-15T12:49:30;98.80;;;96.20;;
38994;SDS011;24769;18.712;99.000;2023-02-15T12:51:57;93.60;;;93.60;;
38994;SDS011;24769;18.712;99.000;2023-02-15T12:54:33;90.40;;;90.00;;
38994;SDS011;24769;18.712;99.000;2023-02-15T12:57:47;94.00;;;94.00;;
38994;SDS011;24769;18.712;99.000;2023-02-15T12:59:59;88.00;;;88.00;;
38994;SDS011;24769;18.712;99.000;2023-02-15T13:02:35;87.80;;;87.60;;
38994;SDS011;24769;18.712;99.000;2023-02-15T13:07:58;92.00;;;90.00;;
38994;SDS011;24769;18.712;99.000;2023-02-15T13:13:35;87.40;;;87.00;;
38994;SDS011;24769;18.712;99.000;2023-02-15T13:16:35;95.00;;;92.80;;
38994;SDS011;24769;18.712;99.000;2023-02-15T13:19:09;92.20;;;91.20;;
38994;SDS011;24769;18.712;99.000;2023-02-15T13:21:52;86.20;;;85.80;;
38994;SDS011;24769;18.712;99.000;2023-02-15T13:26:52;80.60;;;78.60;;
38994;SDS011;24769;18.712;99.000;2023-02-15T13:29:22;86.60;;;86.60;;
38994;SDS011;24769;18.712;99.000;2023-02-15T13:31:53;85.40;;;85.20;;
38994;SDS011;24769;18.712;99.000;2023-02-15T13:59:24;78.80;;;76.80;;
38994;SDS011;24769;18.712;99.000;2023-02-15T14:10:58;127.40;;;126.20;;
38994;SDS011;24769;18.712;99.000;2023-02-15T14:19:33;130.00;;;130.00;;
38994;SDS011;24769;18.712;99.000;2023-02-15T14:22:05;118.60;;;118.20;;
38994;SDS011;24769;18.712;99.000;2023-02-15T14:25:12;135.60;;;134.20;;
38994;SDS011;24769;18.712;99.000;2023-02-15T14:30:44;126.00;;;123.80;;
38994;SDS011;24769;18.712;99.000;2023-02-15T14:35:53;114.40;;;114.20;;
38994;SDS011;24769;18.712;99.000;2023-02-15T14:38:35;119.40;;;118.20;;
38994;SDS011;24769;18.712;99.000;2023-02-15T14:46:36;111.20;;;111.20;;
38994;SDS011;24769;18.712;99.000;2023-02-15T14:49:19;115.80;;;114.40;;
38994;SDS011;24769;18.712;99.000;2023-02-15T14:57:48;115.00;;;114.20;;
38994;SDS011;24769;18.712;99.000;2023-02-15T14:59:50;113.00;;;112.60;;
38994;SDS011;24769;18.712;99.000;2023-02-15T15:02:26;110.60;;;109.80;;
38994;SDS011;24769;18.712;99.000;2023-02-15T15:12:47;110.60;;;109.00;;
38994;SDS011;24769;18.712;99.000;2023-02-15T15:18:08;107.80;;;107.20;;
38994;SDS011;24769;18.712;99.000;2023-02-15T15:20:42;98.40;;;96.80;;
38994;SDS011;24769;18.712;99.000;2023-02-15T15:25:48;105.00;;;104.40;;
38994;SDS011;24769;18.712;99.000;2023-02-15T15:34:35;100.80;;;100.80;;
38994;SDS011;24769;18.712;99.000;2023-02-15T15:48:26;96.20;;;96.20;;
38994;SDS011;24769;18.712;99.000;2023-02-15T15:50:58;108.00;;;105.20;;
38994;SDS011;24769;18.712;99.000;2023-02-15T15:53:28;99.20;;;98.80;;
38994;SDS011;24769;18.712;99.000;2023-02-15T15:56:00;95.40;;;93.00;;
38994;SDS011;24769;18.712;99.000;2023-02-15T15:58:32;98.80;;;97.00;;
38994;SDS011;24769;18.712;99.000;2023-02-15T16:01:07;104.60;;;103.00;;
38994;SDS011;24769;18.712;99.000;2023-02-15T16:03:36;106.00;;;102.60;;
38994;SDS011;24769;18.712;99.000;2023-02-15T16:06:03;105.40;;;103.80;;
38994;SDS011;24769;18.712;99.000;2023-02-15T16:08:34;98.80;;;98.00;;
38994;SDS011;24769;18.712;99.000;2023-02-15T16:11:25;106.00;;;105.00;;
38994;SDS011;24769;18.712;99.000;2023-02-15T16:13:54;100.20;;;98.20;;
38994;SDS011;24769;18.712;99.000;2023-02-15T16:16:22;108.60;;;106.20;;
38994;SDS011;24769;18.712;99.000;2023-02-15T16:18:53;105.80;;;104.00;;
38994;SDS011;24769;18.712;99.000;2023-02-15T16:21:42;96.40;;;96.40;;
38994;SDS011;24769;18.712;99.000;2023-02-15T16:29:37;101.00;;;100.20;;
38994;SDS011;24769;18.712;99.000;2023-02-15T16:32:05;107.60;;;106.00;;
38994;SDS011;24769;18.712;99.000;2023-02-15T16:35:18;106.00;;;104.40;;
38994;SDS011;24769;18.712;99.000;2023-02-15T16:37:44;101.60;;;100.00;;
38994;SDS011;24769;18.712;99.000;2023-02-15T16:40:45;110.60;;;109.00;;
38994;SDS011;24769;18.712;99.000;2023-02-15T16:43:14;104.00;;;102.80;;
38994;SDS011;24769;18.712;99.000;2023-02-15T16:45:47;95.60;;;95.20;;
38994;SDS011;24769;18.712;99.000;2023-02-15T16:48:23;104.60;;;103.20;;
38994;SDS011;24769;18.712;99.000;2023-02-15T16:50:53;99.00;;;98.60;;
38994;SDS011;24769;18.712;99.000;2023-02-15T16:53:24;97.80;;;95.60;;
38994;SDS011;24769;18.712;99.000;2023-02-15T16:55:54;103.00;;;102.40;;
38994;SDS011;24769;18.712;99.000;2023-02-15T16:58:25;104.60;;;104.60;;
38994;SDS011;24769;18.712;99.000;2023-02-15T17:00:59;95.00;;;94.40;;
38994;SDS011;24769;18.712;99.000;2023-02-15T17:03:28;105.40;;;101.80;;
38994;SDS011;24769;18.712;99.000;2023-02-15T17:05:56;99.00;;;97.60;;
38994;SDS011;24769;18.712;99.000;2023-02-15T17:11:36;101.80;;;100.20;;
38994;SDS011;24769;18.712;99.000;2023-02-15T17:13:37;98.40;;;96.60;;
38994;SDS011;24769;18.712;99.000;2023-02-15T17:18:32;99.40;;;99.00;;
38994;SDS011;24769;18.712;99.000;2023-02-15T17:21:10;95.80;;;94.80;;
38994;SDS011;24769;18.712;99.000;2023-02-15T17:23:43;106.00;;;104.40;;
38994;SDS011;24769;18.712;99.000;2023-02-15T17:28:52;95.40;;;94.80;;
38994;SDS011;24769;18.712;99.000;2023-02-15T17:31:25;101.60;;;100.00;;
38994;SDS011;24769;18.712;99.000;2023-02-15T17:33:57;95.80;;;95.20;;
38994;SDS011;24769;18.712;99.000;2023-02-15T17:36:25;97.20;;;96.40;;
38994;SDS011;24769;18.712;99.000;2023-02-15T17:41:24;94.00;;;92.00;;
38994;SDS011;24769;18.712;99.000;2023-02-15T17:43:55;96.20;;;95.60;;
38994;SDS011;24769;18.712;99.000;2023-02-15T17:46:23;106.80;;;103.80;;
38994;SDS011;24769;18.712;99.000;2023-02-15T17:48:52;105.60;;;105.60;;
38994;SDS011;24769;18.712;99.000;2023-02-15T17:51:20;92.60;;;91.60;;
38994;SDS011;24769;18.712;99.000;2023-02-15T17:53:48;111.60;;;109.80;;
38994;SDS011;24769;18.712;99.000;2023-02-15T17:56:33;102.60;;;102.40;;
38994;SDS011;24769;18.712;99.000;2023-02-15T17:59:00;100.40;;;100.00;;
38994;SDS011;24769;18.712;99.000;2023-02-15T18:01:32;94.80;;;94.80;;
38994;SDS011;24769;18.712;99.000;2023-02-15T18:04:18;111.60;;;109.80;;
38994;SDS011;24769;18.712;99.000;2023-02-15T18:07:03;102.80;;;102.20;;
38994;SDS011;24769;18.712;99.000;2023-02-15T18:09:48;100.40;;;98.60;;